Airport View

Enter AWOS ICAO identifier for current METAR.

ex. KFNL

KGCK 120454Z AUTO 18016KT 10SM CLR 05/02 A2992 RMK AO2 PK WND 19028/0422 SLP142 T00500022

12 Dec 2019 05:54

Frequency: 121.325

Phone: 620-275-0803

Other Area AWOS: K19S - KULS - KDDC - K3K3

TAF KGCK 112320Z 1200/1224 17017G27KT P6SM BKN250 FM120300 17017G27KT P6SM OVC200 WS020/20045KT FM120900 27010KT P6SM SCT200 FM121500 32008KT P6SM SKC FM121800 36007KT P6SM BKN200